• Join FlightAware (Why Join?)
  • Login
  • US Flag 
09:47PM EDT


 

Airport Tracker/Info


-or-


 

Live Flight TrackerFlight Track Log ✈ EJA929 ✈ 20-Aug-2013 ✈ KLNK - KBUR

Flight Track Log - Related Links

Times and Time Zones

All times are in EDT time to prevent confusion due to time zone crossing. See the EJA929 flight status page for this flight to view local times or setup timezone preferences in your user account.

Time Position Orientation Groundspeed Altitude Reporting Facility
EDT Latitude Longitude Course Direction KTS MPH feet Rate Location/Type
04:00PM 40.7781 -96.7958 221° Southwest 231 266 3,900  Level Minneapolis Center
04:01PM 40.7183 -96.8492 214° Southwest 248 285 5,200 1,860 Climbing Minneapolis Center
04:02PM 40.6450 -96.9133 214° Southwest 259 298 7,800 2,160 Climbing Minneapolis Center
04:03PM 40.5836 -96.9861 222° Southwest 300 345 9,700 1,620 Climbing Minneapolis Center
04:04PM 40.5744 -97.1014 264° West 318 366 11,200 1,320 Climbing Minneapolis Center
04:05PM 40.5736 -97.2272 270° West 338 389 12,500 1,560 Climbing Minneapolis Center
04:06PM 40.5694 -97.3817 268° West 359 413 14,500 1,860 Climbing Minneapolis Center
04:07PM 40.5678 -97.5142 269° West 362 417 16,400 1,800 Climbing Minneapolis Center
04:08PM 40.5658 -97.6458 269° West 361 415 18,300 1,740 Climbing Minneapolis Center
04:10PM 40.5631 -97.7789 268° West 362 417 20,100 1,680 Climbing Minneapolis Center
04:11PM 40.5597 -97.9131 268° West 364 419 21,900 1,500 Climbing Minneapolis Center
04:12PM 40.5561 -98.0492 268° West 369 425 23,300 1,260 Climbing Minneapolis Center
04:13PM 40.5539 -98.1936 269° West 384 442 24,600 1,380 Climbing Minneapolis Center
04:14PM 40.5483 -98.3758 268° West 406 467 26,200 1,380 Climbing Minneapolis Center
04:15PM 40.5439 -98.5317 268° West 418 481 27,500 1,200 Climbing Minneapolis Center
04:16PM 40.5392 -98.6925 268° West 431 496 28,800 1,260 Climbing Minneapolis Center
04:17PM 40.5344 -98.8561 268° West 440 506 30,200 1,260 Climbing Minneapolis Center
04:18PM 40.5289 -99.0225 268° West 448 516 31,500 1,200 Climbing Minneapolis Center
04:19PM 40.5236 -99.1931 268° West 455 524 32,800 1,080 Climbing Minneapolis Center
04:20PM 40.5203 -99.2947 268° West 464 534 33,600 660 Climbing Denver Center
04:21PM 40.5114 -99.5422 267° West 485 558 34,100 780 Climbing Denver Center
04:22PM 40.4992 -99.7247 265° West 498 573 35,300 1,140 Climbing Denver Center
04:23PM 40.4792 -99.8675 260° West 497 572 36,500 1,440 Climbing Denver Center
04:24PM 40.4481 -100.0758 259° West 488 562 38,300 1,440 Climbing Denver Center
04:25PM 40.4242 -100.2417 259° West 483 556 39,500 780 Climbing Denver Center
04:26PM 40.3953 -100.4361 259° West 483 556 40,000 240 Climbing Denver Center
04:27PM 40.3692 -100.6056 259° West 490 564 40,000  Level Denver Center
04:28PM 40.3392 -100.8053 259° West 496 571 40,000  Level Denver Center
04:29PM 40.3133 -100.9775 259° West 500 575 40,000  Level Denver Center
04:30PM 40.2786 -101.2044 259° West 496 571 40,000  Level Denver Center
04:31PM 40.2511 -101.3761 258° West 501 577 40,000  Level Denver Center
04:32PM 40.2206 -101.5753 259° West 499 574 40,000  Level Denver Center
04:33PM 40.1878 -101.7728 258° West 498 573 40,000  Level Denver Center
04:35PM 40.1553 -101.9703 258° West 498 573 40,000  Level Denver Center
04:36PM 40.1281 -102.1397 258° West 498 573 40,000  Level Denver Center
04:37PM 40.0942 -102.3369 257° West 499 574 40,000  Level Denver Center
04:38PM 40.0672 -102.5058 258° West 497 572 40,000  Level Denver Center
04:39PM 40.0328 -102.7025 257° West 497 572 40,000  Level Denver Center
04:40PM 40.0011 -102.8856 257° West 498 573 40,000  Level Denver Center
04:41PM 39.9706 -103.0611 257° West 498 573 40,000  Level Denver Center
04:42PM 39.9414 -103.2369 258° West 497 572 40,000  Level Denver Center
04:43PM 39.9100 -103.4119 257° West 497 572 40,000 420 Level Denver Center
04:44PM 39.8794 -103.5839 257° West 490 564 40,900 840 Climbing Denver Center
04:45PM 39.8497 -103.7539 257° West 485 558 41,800 780 Climbing Denver Center
04:46PM 39.8261 -103.8853 257° West 465 535 42,600 540 Climbing Denver Center
04:47PM 39.7839 -104.1183 257° West 472 543 43,000 180 Climbing Denver Center
04:48PM 39.7522 -104.2847 256° West 475 547 43,000  Level Denver Center
04:49PM 39.7203 -104.4561 256° West 487 560 43,000  Level Denver Center
04:50PM 39.6942 -104.6217 258° West 474 545 43,000  Level Denver Center
04:51PM 39.6758 -104.7947 262° West 506 582 43,000  Level Denver Center
04:52PM 39.6514 -104.9997 261° West 481 554 43,000  Level Denver Center
04:53PM 39.6322 -105.1733 262° West 486 559 43,000  Level Denver Center
04:54PM 39.6103 -105.3797 262° West 479 551 43,000  Level Denver Center
04:55PM 39.5919 -105.5519 262° West 478 550 43,000  Level Denver Center
04:56PM 39.5686 -105.7608 262° West 484 557 43,000  Level Denver Center
04:57PM 39.5519 -105.9300 263° West 471 542 43,000  Level Denver Center
04:58PM 39.5317 -106.1031 261° West 487 560 43,000  Level Denver Center
05:00PM 39.5136 -106.2658 262° West 487 560 43,000  Level Denver Center
05:01PM 39.4931 -106.4383 261° West 485 558 43,000  Level Denver Center
05:02PM 39.4697 -106.6353 261° West 484 557 43,000  Level Denver Center
05:03PM 39.4444 -106.8267 260° West 483 556 43,000  Level Denver Center
05:04PM 39.4161 -106.9897 257° West 484 557 43,000  Level Denver Center
05:05PM 39.3689 -107.1739 252° West 483 556 43,000  Level Denver Center
05:06PM 39.3283 -107.3322 252° West 486 559 43,000  Level Denver Center
05:07PM 39.2886 -107.4894 252° West 481 554 43,000  Level Denver Center
05:08PM 39.2408 -107.6753 252° West 484 557 43,000  Level Denver Center
05:09PM 39.1997 -107.8328 251° West 484 557 43,000  Level Denver Center
05:10PM 39.1528 -108.0158 252° West 481 554 43,000  Level Denver Center
05:11PM 39.1125 -108.1733 252° West 481 554 43,000  Level Denver Center
05:12PM 39.0619 -108.3608 251° West 495 570 43,000  Level Denver Center
05:13PM 39.0194 -108.5189 251° West 492 566 43,000  Level Denver Center
05:14PM 38.9717 -108.7033 252° West 481 554 43,000  Level Denver Center
05:15PM 38.9364 -108.8331 251° West 479 551 43,000  Level Denver Center
05:16PM 38.8881 -109.0136 251° West 478 550 43,000  Level Denver Center
05:17PM 38.8386 -109.1944 251° West 478 550 43,000  Level Denver Center
05:18PM 38.8036 -109.3225 251° West 478 550 43,000  Level Denver Center
05:19PM 38.7475 -109.5289 251° West 479 551 43,000  Level Denver Center
05:20PM 38.7044 -109.6817 250° West 475 547 43,000  Level Denver Center
05:21PM 38.6544 -109.8611 250° West 480 552 43,000  Level Denver Center
05:22PM 38.6264 -109.9656 251° West 481 554 43,000  Level Salt Lake Center
05:23PM 38.5556 -110.1342 242° Southwest 481 554 43,000  Level Salt Lake Center
05:24PM 38.4861 -110.2711 237° Southwest 482 555 43,000  Level Salt Lake Center
05:25PM 38.4050 -110.4314 237° Southwest 481 554 43,000  Level Salt Lake Center
05:26PM 38.3353 -110.5689 237° Southwest 481 554 43,000  Level Salt Lake Center
05:27PM 38.2536 -110.7286 237° Southwest 483 556 43,000  Level Salt Lake Center
05:28PM 38.1842 -110.8642 237° Southwest 479 551 43,000  Level Salt Lake Center
05:29PM 38.1033 -111.0206 237° Southwest 480 552 43,000  Level Salt Lake Center
05:30PM 38.0553 -111.1800 249° West 485 558 43,000  Level Salt Lake Center
05:31PM 38.0092 -111.3386 250° West 482 555 43,000  Level Salt Lake Center
05:32PM 37.9608 -111.4961 249° West 481 554 43,000  Level Salt Lake Center
05:33PM 37.9036 -111.6489 245° Southwest 482 555 43,000  Level Salt Lake Center
05:34PM 37.8269 -111.7856 235° Southwest 477 549 43,000  Level Salt Lake Center
05:35PM 37.7336 -111.9492 234° Southwest 478 550 43,000  Level Salt Lake Center
05:36PM 37.6533 -112.0875 234° Southwest 485 558 43,000  Level Salt Lake Center
05:37PM 37.5747 -112.2250 234° Southwest 483 556 43,000  Level Salt Lake Center
05:38PM 37.4953 -112.3617 234° Southwest 482 555 43,000  Level Salt Lake Center
05:40PM 37.4156 -112.4992 234° Southwest 482 555 43,000  Level Salt Lake Center
05:41PM 37.3508 -112.6097 234° Southwest 484 557 43,000  Level Los Angeles Center
05:42PM 37.2533 -112.7750 233° Southwest 484 557 43,000  Level Los Angeles Center
05:43PM 37.1739 -112.9128 234° Southwest 484 557 43,000  Level Los Angeles Center
05:44PM 37.0775 -113.0769 234° Southwest 485 558 43,000  Level Los Angeles Center
05:45PM 36.9964 -113.2131 233° Southwest 488 562 43,000  Level Los Angeles Center
05:46PM 36.9156 -113.3494 233° Southwest 488 562 43,000  Level Los Angeles Center
05:47PM 36.8342 -113.4861 233° Southwest 491 565 43,000  Level Los Angeles Center
05:48PM 36.7528 -113.6217 233° Southwest 491 565 43,000  Level Los Angeles Center
05:49PM 36.6706 -113.7564 233° Southwest 489 563 43,000  Level Los Angeles Center
05:50PM 36.5725 -113.9208 233° Southwest 492 566 43,000  Level Los Angeles Center
05:51PM 36.5014 -114.0361 233° Southwest 491 565 43,000  Level Los Angeles Center
05:52PM 36.4039 -114.1992 233° Southwest 489 563 43,000  Level Los Angeles Center
05:53PM 36.3214 -114.3333 233° Southwest 489 563 43,000  Level Los Angeles Center
05:54PM 36.2392 -114.4675 233° Southwest 489 563 43,000  Level Los Angeles Center
05:55PM 36.1564 -114.6008 232° Southwest 486 559 43,000 -240 Level Los Angeles Center
05:56PM 36.0744 -114.7347 233° Southwest 487 560 42,500 -1,080 Descending Los Angeles Center
05:57PM 35.9903 -114.8669 232° Southwest 487 560 40,800 -1,860 Descending Los Angeles Center
05:58PM 35.8858 -115.0111 228° Southwest 469 540 38,700 -1,380 Descending Los Angeles Center
05:59PM 35.7983 -115.1294 228° Southwest 466 536 38,000 -360 Descending Los Angeles Center
06:00PM 35.7092 -115.2519 228° Southwest 475 547 38,000  Level Los Angeles Center
06:01PM 35.6172 -115.3761 228° Southwest 483 556 38,000  Level Los Angeles Center
06:02PM 35.5253 -115.4992 227° Southwest 487 560 38,000  Level Los Angeles Center
06:03PM 35.4303 -115.6286 228° Southwest 489 563 38,000  Level Los Angeles Center
06:04PM 35.3372 -115.7525 227° Southwest 492 566 38,000 -960 Level Los Angeles Center
06:05PM 35.2458 -115.8719 227° Southwest 485 558 36,100 -2,160 Descending Los Angeles Center
06:06PM 35.1556 -115.9914 227° Southwest 478 550 33,600 -2,520 Descending Los Angeles Center
06:07PM 35.0622 -116.1158 228° Southwest 491 565 30,900 -2,880 Descending Los Angeles Center
06:09PM 34.9481 -116.2650 227° Southwest 499 574 27,700 -2,880 Descending Los Angeles Center
06:10PM 34.8531 -116.3914 228° Southwest 488 562 25,000 -2,160 Descending Los Angeles Center
06:11PM 34.7981 -116.4822 234° Southwest 457 526 23,300 -1,920 Descending Los Angeles Center
06:12PM 34.7800 -116.6283 261° West 441 507 21,100 -1,620 Descending Los Angeles Center
06:13PM 34.7217 -116.7869 246° West 425 489 20,000 -540 Descending Los Angeles Center
06:14PM 34.6997 -116.9294 259° West 431 496 20,000 -780 Level Los Angeles Center
06:15PM 34.6903 -117.1086 266° West 442 509 18,400 -1,500 Descending Los Angeles Center
06:16PM 34.6808 -117.2589 266° West 445 512 16,900 -1,440 Descending Los Angeles Center
06:17PM 34.6722 -117.4039 266° West 435 501 15,400 -1,500 Descending Los Angeles Center
06:18PM 34.6642 -117.5436 266° West 418 481 13,800 -1,560 Descending Los Angeles Center
06:19PM 34.6564 -117.6703 266° West 383 441 12,300 -900 Descending Los Angeles Center
06:20PM 34.6492 -117.7761 265° West 386 444 12,000 -180 Descending Los Angeles Center
06:21PM 34.6394 -117.9408 266° West 405 466 12,000  Level Los Angeles Center
06:22PM 34.6283 -118.0767 264° West 314 361 12,000 -360 Level Los Angeles Center
06:23PM 34.6100 -118.1611 255° West 291 335 11,300 -1,320 Descending Los Angeles Center
06:24PM 34.5836 -118.2797 255° West 304 350 9,300 -1,620 Descending Los Angeles Center
06:25PM 34.5636 -118.3678 255° West 279 321 8,000 -660 Descending Los Angeles Center
06:26PM 34.5433 -118.4581 255° West 280 322 8,000  Level Los Angeles Center
06:27PM 34.5222 -118.5514 255° West 287 330 8,100 -60 Climbing Los Angeles Center
06:28PM 34.4633 -118.5800 202° Southwest 270 311 7,900 -900 Descending Los Angeles Center
06:29PM 34.3972 -118.5386 153° Southeast 264 304 6,300 -1,740 Descending Los Angeles Center
06:30PM 34.3333 -118.4833 144° Southeast 254 292 4,600 -1,800 Descending Southern California TRACON
06:31PM 34.3000 -118.4167 121° Southeast 238 274 3,000 -960 Descending Southern California TRACON
06:32PM 34.2667 -118.3833 140° Southeast 164 189 2,700 -900 Descending Southern California TRACON
06:33PM 34.2333 -118.3667 158° South 130 150 1,300 -720 Descending Southern California TRACON
06:34PM 34.1939 -118.3553 167° South 149 171 1,100 -180 Descending Los Angeles Center
06:36PM 34.2000 -118.3500 North  Level FlightAware Approximate